createdAt,value
2023-05-19T00:00:34.749Z,25.5
2023-05-19T00:01:37.069Z,25.5
2023-05-19T00:02:39.204Z,25.5
2023-05-19T00:03:41.985Z,25.5
2023-05-19T00:04:43.945Z,25.5
2023-05-19T00:05:45.879Z,25.5
2023-05-19T00:06:47.992Z,25.5
2023-05-19T00:07:49.611Z,25.5
2023-05-19T00:08:51.544Z,25.4
2023-05-19T00:09:53.458Z,25.4
2023-05-19T00:10:55.243Z,25.4
2023-05-19T00:11:57.006Z,25.5
2023-05-19T00:12:58.607Z,25.5
2023-05-19T00:14:00.502Z,25.5
2023-05-19T00:15:02.425Z,25.5
2023-05-19T00:16:04.473Z,25.5
2023-05-19T00:17:09.525Z,25.5
2023-05-19T00:18:11.403Z,25.5
2023-05-19T00:19:13.498Z,25.5
2023-05-19T00:20:15.752Z,25.5
2023-05-19T00:21:17.636Z,25.5
2023-05-19T00:22:19.481Z,25.5
2023-05-19T00:23:21.334Z,25.5
2023-05-19T00:24:23.192Z,25.6
2023-05-19T00:25:25.078Z,25.5
2023-05-19T00:26:27.076Z,25.5
2023-05-19T00:27:28.935Z,25.5
2023-05-19T00:28:30.781Z,25.6
2023-05-19T00:29:32.422Z,25.6
2023-05-19T00:30:34.469Z,25.6
2023-05-19T00:31:36.481Z,25.6
2023-05-19T00:32:38.528Z,25.6
2023-05-19T00:33:40.795Z,25.6
2023-05-19T00:34:42.748Z,25.6
2023-05-19T00:35:44.656Z,25.6
2023-05-19T00:36:46.471Z,25.6
2023-05-19T00:37:48.408Z,25.6
2023-05-19T00:38:50.207Z,25.6
2023-05-19T00:39:52.220Z,25.6
2023-05-19T00:40:54.210Z,25.6
2023-05-19T00:41:56.166Z,25.6
2023-05-19T00:42:57.819Z,25.6
2023-05-19T00:43:59.707Z,25.6
2023-05-19T00:45:01.626Z,25.6
2023-05-19T00:46:03.478Z,25.6
2023-05-19T00:47:05.399Z,25.6
2023-05-19T00:48:07.775Z,25.6
2023-05-19T00:49:12.827Z,25.6
2023-05-19T00:50:14.658Z,25.6
2023-05-19T00:51:16.606Z,25.6
2023-05-19T00:52:18.773Z,25.6
2023-05-19T00:53:20.616Z,25.6
2023-05-19T00:54:22.459Z,25.6
2023-05-19T00:55:24.311Z,25.6
2023-05-19T00:56:26.131Z,25.6
2023-05-19T00:57:28.017Z,25.6
2023-05-19T00:58:29.936Z,25.6
2023-05-19T00:59:32.074Z,25.6
2023-05-19T01:00:34.174Z,25.6
2023-05-19T01:01:37.255Z,25.6
2023-05-19T01:02:39.445Z,25.6
2023-05-19T01:03:41.898Z,25.6
2023-05-19T01:04:44.570Z,25.6
2023-05-19T01:05:46.517Z,25.6
2023-05-19T01:06:48.412Z,25.6
2023-05-19T01:07:50.298Z,25.6
2023-05-19T01:08:52.153Z,25.6
2023-05-19T01:09:54.012Z,25.6
2023-05-19T01:10:55.860Z,25.6
2023-05-19T01:11:57.761Z,25.6
2023-05-19T01:12:59.552Z,25.6
2023-05-19T01:14:01.319Z,25.6
2023-05-19T01:15:03.360Z,25.6
2023-05-19T01:16:05.222Z,25.7
2023-05-19T01:17:07.124Z,25.6
2023-05-19T01:18:08.950Z,25.7
2023-05-19T01:19:11.090Z,25.6
2023-05-19T01:20:13.249Z,25.6
2023-05-19T01:21:15.110Z,25.6
2023-05-19T01:22:16.985Z,25.6
2023-05-19T01:23:18.884Z,25.6
2023-05-19T01:24:20.771Z,25.6
2023-05-19T01:25:22.589Z,25.6
2023-05-19T01:26:24.427Z,25.6
2023-05-19T01:27:26.235Z,25.6
2023-05-19T01:28:28.129Z,25.6
2023-05-19T01:29:30.240Z,25.6
2023-05-19T01:30:32.288Z,25.6
2023-05-19T01:31:35.157Z,25.6
2023-05-19T01:32:37.143Z,25.6
2023-05-19T01:33:39.302Z,25.6
2023-05-19T01:34:41.179Z,25.6
2023-05-19T01:35:43.228Z,25.6
2023-05-19T01:36:45.077Z,25.6
2023-05-19T01:37:46.933Z,25.6
2023-05-19T01:38:48.808Z,25.6
2023-05-19T01:39:50.636Z,25.6
2023-05-19T01:40:52.492Z,25.6
2023-05-19T01:41:54.334Z,25.6
2023-05-19T01:42:57.490Z,25.6
2023-05-19T01:43:59.672Z,25.6
2023-05-19T01:45:01.527Z,25.6
2023-05-19T01:46:03.307Z,25.6
2023-05-19T01:47:05.385Z,25.6
2023-05-19T01:48:10.093Z,25.6
2023-05-19T01:49:13.121Z,25.6
2023-05-19T01:50:14.989Z,25.6
2023-05-19T01:51:16.854Z,25.6
2023-05-19T01:52:18.709Z,25.6
2023-05-19T01:53:20.686Z,25.6
2023-05-19T01:54:22.468Z,25.6
2023-05-19T01:55:24.335Z,25.6
2023-05-19T01:56:26.167Z,25.6
2023-05-19T01:57:28.028Z,25.6
2023-05-19T01:58:29.928Z,25.6
2023-05-19T01:59:31.719Z,25.6
2023-05-19T02:00:33.780Z,25.7
2023-05-19T02:01:36.750Z,25.6
2023-05-19T02:02:38.646Z,25.6
2023-05-19T02:03:40.832Z,25.6
2023-05-19T02:04:42.733Z,25.6
2023-05-19T02:05:44.971Z,25.6
2023-05-19T02:06:46.783Z,25.6
2023-05-19T02:07:48.832Z,25.6
2023-05-19T02:08:50.743Z,25.6
2023-05-19T02:09:52.750Z,25.6
2023-05-19T02:10:54.646Z,25.6
2023-05-19T02:11:56.475Z,25.6
2023-05-19T02:12:58.280Z,25.6
2023-05-19T02:14:00.655Z,25.6
2023-05-19T02:15:02.552Z,25.6
2023-05-19T02:16:04.318Z,25.6
2023-05-19T02:17:06.462Z,25.6
2023-05-19T02:18:08.288Z,25.6
2023-05-19T02:19:10.195Z,25.6
2023-05-19T02:20:12.105Z,25.6
2023-05-19T02:21:14.177Z,25.6
2023-05-19T02:22:16.035Z,25.6
2023-05-19T02:23:17.736Z,25.6
2023-05-19T02:24:19.673Z,25.6
2023-05-19T02:25:21.464Z,25.6
2023-05-19T02:26:23.374Z,25.6
2023-05-19T02:27:25.257Z,25.6
2023-05-19T02:28:27.308Z,25.6
2023-05-19T02:29:29.236Z,25.6
2023-05-19T02:30:31.254Z,25.6
2023-05-19T02:31:34.548Z,25.6
2023-05-19T02:32:36.622Z,25.6
2023-05-19T02:33:39.152Z,25.6
2023-05-19T02:34:41.002Z,25.6
2023-05-19T02:35:42.889Z,25.6
2023-05-19T02:36:44.778Z,25.6
2023-05-19T02:37:46.764Z,25.6
2023-05-19T02:38:48.678Z,25.6
2023-05-19T02:39:50.627Z,25.6
2023-05-19T02:40:52.447Z,25.6
2023-05-19T02:41:54.336Z,25.6
2023-05-19T02:42:56.081Z,25.6
2023-05-19T02:43:57.823Z,25.6
2023-05-19T02:44:59.666Z,25.6
2023-05-19T02:46:04.261Z,25.6
2023-05-19T02:47:06.352Z,25.6
2023-05-19T02:48:08.238Z,25.5
2023-05-19T02:49:10.258Z,25.5
2023-05-19T02:50:12.100Z,25.5
2023-05-19T02:51:14.012Z,25.6
2023-05-19T02:52:15.809Z,25.6
2023-05-19T02:53:17.672Z,25.6
2023-05-19T02:54:19.502Z,25.6
2023-05-19T02:55:21.245Z,25.6
2023-05-19T02:56:23.147Z,25.6
2023-05-19T02:57:25.055Z,25.6
2023-05-19T02:58:26.798Z,25.6
2023-05-19T02:59:28.648Z,25.6
2023-05-19T03:00:30.578Z,25.6
2023-05-19T03:01:33.652Z,25.6
2023-05-19T03:02:35.686Z,25.6
2023-05-19T03:03:37.966Z,25.6
2023-05-19T03:04:40.422Z,25.6
2023-05-19T03:05:42.260Z,25.6
2023-05-19T03:06:44.162Z,25.6
2023-05-19T03:07:46.016Z,25.6
2023-05-19T03:08:47.886Z,25.6
2023-05-19T03:09:49.711Z,25.6
2023-05-19T03:10:51.567Z,25.6
2023-05-19T03:11:53.297Z,25.6
2023-05-19T03:12:55.149Z,25.6
2023-05-19T03:13:56.876Z,25.6
2023-05-19T03:14:58.752Z,25.6
2023-05-19T03:16:00.680Z,25.6
2023-05-19T03:17:02.570Z,25.5
2023-05-19T03:18:04.429Z,25.5
2023-05-19T03:19:06.456Z,25.5
2023-05-19T03:20:08.554Z,25.5
2023-05-19T03:21:10.468Z,25.4
2023-05-19T03:22:12.324Z,25.4
2023-05-19T03:23:14.176Z,25.4
2023-05-19T03:24:16.107Z,25.4
2023-05-19T03:25:17.872Z,25.4
2023-05-19T03:26:19.612Z,25.3
2023-05-19T03:27:21.466Z,25.3
2023-05-19T03:28:23.453Z,25.3
2023-05-19T03:29:25.298Z,25.3
2023-05-19T03:30:27.153Z,25.3
2023-05-19T03:31:28.976Z,25.2
2023-05-19T03:32:30.870Z,25.1
2023-05-19T03:33:33.125Z,25.1
2023-05-19T03:34:35.302Z,25.1
2023-05-19T03:35:37.152Z,25.1
2023-05-19T03:36:39.037Z,25
2023-05-19T03:37:40.847Z,25
2023-05-19T03:38:42.766Z,25.1
2023-05-19T03:39:44.856Z,25.1
2023-05-19T03:40:46.752Z,25
2023-05-19T03:41:48.728Z,25
2023-05-19T03:42:50.660Z,25.1
2023-05-19T03:43:52.428Z,25
2023-05-19T03:44:54.281Z,25.1
2023-05-19T03:45:56.188Z,25.2
2023-05-19T03:46:58.181Z,25.2
2023-05-19T03:47:59.965Z,25.3
2023-05-19T03:49:01.968Z,25.3
2023-05-19T03:50:03.806Z,25.3
2023-05-19T03:51:05.594Z,25.3
2023-05-19T03:52:07.577Z,25.3
2023-05-19T03:53:09.454Z,25.4
2023-05-19T03:54:11.321Z,25.5
2023-05-19T03:55:13.280Z,25.6
2023-05-19T03:56:15.102Z,25.6
2023-05-19T03:57:17.007Z,25.7
2023-05-19T03:58:18.817Z,25.7
2023-05-19T03:59:20.662Z,25.6
2023-05-19T04:00:22.576Z,25.6
2023-05-19T04:01:24.373Z,25.6
2023-05-19T04:02:26.229Z,25.6
2023-05-19T04:03:28.493Z,25.5
2023-05-19T04:04:30.829Z,25.4
2023-05-19T04:05:32.676Z,25.4
2023-05-19T04:06:34.537Z,25.4
2023-05-19T04:07:36.282Z,25.5
2023-05-19T04:08:38.158Z,25.5
2023-05-19T04:09:40.035Z,25.6
2023-05-19T04:10:42.197Z,25.6
2023-05-19T04:11:44.078Z,25.7
2023-05-19T04:12:45.893Z,25.7
2023-05-19T04:13:47.910Z,25.9
2023-05-19T04:14:49.752Z,25.9
2023-05-19T04:15:51.630Z,25.9
2023-05-19T04:16:53.754Z,25.8
2023-05-19T04:17:58.552Z,25.8
2023-05-19T04:19:00.651Z,25.7
2023-05-19T04:20:02.673Z,25.7
2023-05-19T04:21:04.519Z,25.7
2023-05-19T04:22:06.431Z,25.7
2023-05-19T04:23:08.402Z,25.7
2023-05-19T04:24:10.371Z,25.7
2023-05-19T04:25:12.249Z,25.8
2023-05-19T04:26:14.286Z,25.8
2023-05-19T04:27:16.162Z,25.8
2023-05-19T04:28:17.818Z,25.9
2023-05-19T04:29:19.749Z,26
2023-05-19T04:30:24.621Z,26.1
2023-05-19T04:31:26.263Z,26.1
2023-05-19T04:32:28.493Z,26.1
2023-05-19T04:33:30.417Z,26.1
2023-05-19T04:34:32.311Z,26.2
2023-05-19T04:35:34.304Z,26.2
2023-05-19T04:36:36.183Z,26.3
2023-05-19T04:37:38.017Z,26.3
2023-05-19T04:38:39.649Z,26.3
2023-05-19T04:39:41.517Z,26.4
2023-05-19T04:40:43.377Z,26.4
2023-05-19T04:41:45.357Z,26.4
2023-05-19T04:42:47.381Z,26.4
2023-05-19T04:43:49.273Z,26.5
2023-05-19T04:44:51.226Z,26.5
2023-05-19T04:45:53.246Z,26.5
2023-05-19T04:46:55.118Z,26.6
2023-05-19T04:47:57.188Z,26.6
2023-05-19T04:48:59.499Z,26.6
2023-05-19T04:50:01.173Z,26.7
2023-05-19T04:51:03.000Z,26.7
2023-05-19T04:52:04.862Z,26.7
2023-05-19T04:53:06.687Z,26.7
2023-05-19T04:54:08.772Z,26.7
2023-05-19T04:55:10.868Z,26.7
2023-05-19T04:56:12.743Z,26.7
2023-05-19T04:57:14.731Z,26.8
2023-05-19T04:58:16.639Z,26.7
2023-05-19T04:59:18.281Z,26.7
2023-05-19T05:00:20.053Z,26.7
2023-05-19T05:01:21.958Z,26.7
2023-05-19T05:02:24.196Z,26.8
2023-05-19T05:03:26.642Z,26.8
2023-05-19T05:04:28.896Z,26.8
2023-05-19T05:05:30.675Z,26.8
2023-05-19T05:06:33.072Z,26.7
2023-05-19T05:07:34.857Z,26.7
2023-05-19T05:08:36.693Z,26.6
2023-05-19T05:09:38.431Z,26.7
2023-05-19T05:10:40.446Z,26.7
2023-05-19T05:11:42.148Z,26.7
2023-05-19T05:12:44.248Z,26.7
2023-05-19T05:13:46.029Z,26.7
2023-05-19T05:14:49.336Z,26.8
2023-05-19T05:15:51.239Z,26.8
2023-05-19T05:16:53.254Z,26.9
2023-05-19T05:17:55.818Z,26.9
2023-05-19T05:18:58.029Z,27
2023-05-19T05:20:00.357Z,27
2023-05-19T05:21:02.309Z,27
2023-05-19T05:22:04.117Z,27.1
2023-05-19T05:23:06.075Z,27.1
2023-05-19T05:24:07.918Z,27
2023-05-19T05:25:09.828Z,27
2023-05-19T05:26:11.769Z,27
2023-05-19T05:27:13.778Z,27.1
2023-05-19T05:28:15.653Z,27.2
2023-05-19T05:29:17.579Z,27.2
2023-05-19T05:30:19.492Z,27.2
2023-05-19T05:31:21.386Z,27.1
2023-05-19T05:32:23.174Z,27.1
2023-05-19T05:33:25.470Z,27.1
2023-05-19T05:34:27.747Z,27.1
2023-05-19T05:35:29.568Z,27.2
2023-05-19T05:36:32.260Z,27.2
2023-05-19T05:37:34.198Z,27.3
2023-05-19T05:38:36.461Z,27.3
2023-05-19T05:39:38.240Z,27.3
2023-05-19T05:40:39.896Z,27.3
2023-05-19T05:41:41.725Z,27.3
2023-05-19T05:42:43.782Z,27.3
2023-05-19T05:43:45.780Z,27.2
2023-05-19T05:44:47.691Z,27.2
2023-05-19T05:45:49.363Z,27.2
2023-05-19T05:46:51.070Z,27.1
2023-05-19T05:47:53.110Z,27
2023-05-19T05:48:55.294Z,26.9
2023-05-19T05:49:57.277Z,26.9
2023-05-19T05:50:59.117Z,26.8
2023-05-19T05:52:06.076Z,26.8
2023-05-19T05:53:08.633Z,26.6
2023-05-19T05:54:10.222Z,26.6
2023-05-19T05:55:11.876Z,26.6
2023-05-19T05:56:13.965Z,26.5
2023-05-19T05:57:15.953Z,26.5
2023-05-19T05:58:17.734Z,26.3
2023-05-19T05:59:19.671Z,26.3
2023-05-19T06:00:21.654Z,26.3
2023-05-19T06:01:23.779Z,26.2
2023-05-19T06:02:26.481Z,26.3
2023-05-19T06:03:28.688Z,26.3
2023-05-19T06:04:31.070Z,26.3
2023-05-19T06:05:33.112Z,26.4
2023-05-19T06:06:35.309Z,26.4
2023-05-19T06:07:36.945Z,26.4
2023-05-19T06:08:38.530Z,26.4
2023-05-19T06:09:40.196Z,26.4
2023-05-19T06:10:41.821Z,26.4
2023-05-19T06:11:45.291Z,26.4
2023-05-19T06:12:47.142Z,26.4
2023-05-19T06:13:49.028Z,26.4
2023-05-19T06:14:50.788Z,26.4
2023-05-19T06:15:52.503Z,26.4
2023-05-19T06:16:54.990Z,26.4
2023-05-19T06:17:56.681Z,26.4
2023-05-19T06:18:58.854Z,26.4
2023-05-19T06:20:01.025Z,26.4
2023-05-19T06:21:02.671Z,26.3
2023-05-19T06:22:04.454Z,26.3
2023-05-19T06:23:06.095Z,26.3
2023-05-19T06:24:07.752Z,26.2
2023-05-19T06:25:09.375Z,26.2
2023-05-19T06:26:11.120Z,26.2
2023-05-19T06:27:12.752Z,26.3
2023-05-19T06:28:14.458Z,26.3
2023-05-19T06:29:16.135Z,26.3
2023-05-19T06:30:17.993Z,26.3
2023-05-19T06:31:19.666Z,26.3
2023-05-19T06:32:21.569Z,26.3
2023-05-19T06:33:23.778Z,26.3
2023-05-19T06:34:31.304Z,26.3
2023-05-19T06:35:32.937Z,26.3
2023-05-19T06:36:35.191Z,26.3
2023-05-19T06:37:36.911Z,26.4
2023-05-19T06:38:38.557Z,26.4
2023-05-19T06:39:40.187Z,26.4
2023-05-19T06:40:41.759Z,26.4
2023-05-19T06:41:43.425Z,26.4
2023-05-19T06:42:45.460Z,26.4
2023-05-19T06:43:47.122Z,26.4
2023-05-19T06:44:48.737Z,26.4
2023-05-19T06:45:50.520Z,26.4
2023-05-19T06:46:52.168Z,26.5
2023-05-19T06:47:54.425Z,26.5
2023-05-19T06:48:56.756Z,26.5
2023-05-19T06:49:58.400Z,26.5
2023-05-19T06:51:00.303Z,26.5
2023-05-19T06:52:02.214Z,26.5
2023-05-19T06:53:04.154Z,26.5
2023-05-19T06:54:06.133Z,26.5
2023-05-19T06:55:08.213Z,26.5
2023-05-19T06:56:09.913Z,26.5
2023-05-19T06:57:12.034Z,26.5
2023-05-19T06:58:13.704Z,26.5
2023-05-19T06:59:15.385Z,26.5
2023-05-19T07:00:19.336Z,26.5
2023-05-19T07:01:33.756Z,26.5
2023-05-19T07:02:35.816Z,26.4
2023-05-19T07:03:38.322Z,26.4
2023-05-19T07:04:40.691Z,26.4
2023-05-19T07:05:43.201Z,26.3
2023-05-19T07:06:44.890Z,26.3
2023-05-19T07:07:47.018Z,26.2
2023-05-19T07:08:48.702Z,26.2
2023-05-19T07:09:52.465Z,26.1
2023-05-19T07:10:54.535Z,26.1
2023-05-19T07:11:56.318Z,26.1
2023-05-19T07:12:58.301Z,26
2023-05-19T07:14:00.201Z,26.1
2023-05-19T07:15:02.244Z,26.1
2023-05-19T07:16:05.474Z,26.1
2023-05-19T07:17:07.459Z,26.2
2023-05-19T07:18:09.660Z,26.3
2023-05-19T07:19:12.049Z,26.3
2023-05-19T07:20:14.460Z,26.3
2023-05-19T07:21:16.153Z,26.3
2023-05-19T07:22:18.566Z,26.3
2023-05-19T07:23:20.608Z,26.3
2023-05-19T07:24:22.292Z,26.3
2023-05-19T07:25:23.976Z,26.3
2023-05-19T07:26:25.639Z,26.3
2023-05-19T07:27:27.299Z,26.3
2023-05-19T07:28:29.021Z,26.3
2023-05-19T07:29:30.730Z,26.3
2023-05-19T07:30:32.609Z,26.3
2023-05-19T07:31:35.591Z,26.2
2023-05-19T07:32:37.664Z,26.2
2023-05-19T07:33:39.641Z,26.2
2023-05-19T07:34:41.416Z,26.2
2023-05-19T07:35:43.129Z,26.2
2023-05-19T07:36:44.890Z,26.2
2023-05-19T07:37:46.642Z,26.2
2023-05-19T07:38:48.599Z,26.2
2023-05-19T07:39:50.645Z,26.2
2023-05-19T07:40:52.496Z,26.1
2023-05-19T07:41:54.288Z,26.1
2023-05-19T07:42:56.092Z,26.1
2023-05-19T07:43:57.816Z,26.1
2023-05-19T07:44:59.818Z,26.1
2023-05-19T07:46:02.066Z,26
2023-05-19T07:47:04.020Z,26.1
2023-05-19T07:48:06.105Z,26.1
2023-05-19T07:49:07.988Z,26.1
2023-05-19T07:50:10.000Z,26.1
2023-05-19T07:51:11.954Z,26.1
2023-05-19T07:52:13.626Z,26
2023-05-19T07:53:15.401Z,26
2023-05-19T07:54:17.213Z,26
2023-05-19T07:55:19.158Z,26.1
2023-05-19T07:56:20.876Z,26.1
2023-05-19T07:57:22.548Z,26.2
2023-05-19T07:58:24.750Z,26.2
2023-05-19T07:59:26.601Z,26.3
2023-05-19T08:00:28.367Z,26.2
2023-05-19T08:01:30.075Z,26.2
2023-05-19T08:02:31.776Z,26.3
2023-05-19T08:03:34.237Z,26.3
2023-05-19T08:04:37.340Z,26.3
2023-05-19T08:05:39.446Z,26.3
2023-05-19T08:06:41.588Z,26.2
2023-05-19T08:07:43.318Z,26.2
2023-05-19T08:08:45.018Z,26.1
2023-05-19T08:09:46.680Z,26
2023-05-19T08:10:48.366Z,26
2023-05-19T08:11:50.116Z,26
2023-05-19T08:12:51.768Z,26
2023-05-19T08:13:53.448Z,26
2023-05-19T08:14:55.170Z,26
2023-05-19T08:15:56.884Z,26
2023-05-19T08:16:58.882Z,26
2023-05-19T08:18:00.551Z,26
2023-05-19T08:19:02.556Z,26
2023-05-19T08:20:04.963Z,26.1
2023-05-19T08:21:06.816Z,26.1
2023-05-19T08:22:08.467Z,26.1
2023-05-19T08:23:10.142Z,26.1
2023-05-19T08:24:11.767Z,26.1
2023-05-19T08:25:13.501Z,26.1
2023-05-19T08:26:15.206Z,26.1
2023-05-19T08:27:16.905Z,26.1
2023-05-19T08:28:18.611Z,26.1
2023-05-19T08:29:20.373Z,26.1
2023-05-19T08:30:22.042Z,26.1
2023-05-19T08:31:24.264Z,26.1
2023-05-19T08:32:26.445Z,26.1
2023-05-19T08:33:28.326Z,26.1
2023-05-19T08:34:30.156Z,26.1
2023-05-19T08:35:31.768Z,26.1
2023-05-19T08:36:33.396Z,26
2023-05-19T08:37:35.169Z,26
2023-05-19T08:38:36.838Z,26
2023-05-19T08:39:38.453Z,26
2023-05-19T08:40:40.128Z,26
2023-05-19T08:41:41.821Z,26
2023-05-19T08:42:43.521Z,26
2023-05-19T08:43:45.193Z,26
2023-05-19T08:44:46.871Z,26
2023-05-19T08:45:48.613Z,26
2023-05-19T08:46:50.339Z,26
2023-05-19T08:47:52.196Z,25.9
2023-05-19T08:48:54.692Z,26
2023-05-19T08:49:56.506Z,26
2023-05-19T08:50:58.224Z,26
2023-05-19T08:51:59.879Z,26
2023-05-19T08:53:01.534Z,26
2023-05-19T08:54:03.292Z,25.9
2023-05-19T08:55:05.020Z,25.9
2023-05-19T08:56:06.617Z,25.9
2023-05-19T08:57:08.473Z,25.9
2023-05-19T08:58:10.336Z,25.8
2023-05-19T08:59:11.989Z,25.8
2023-05-19T09:00:13.568Z,25.8
2023-05-19T09:01:15.250Z,25.8
2023-05-19T09:02:17.067Z,25.8
2023-05-19T09:03:23.641Z,25.8
2023-05-19T09:04:27.100Z,25.8
2023-05-19T09:05:32.481Z,25.8
2023-05-19T09:06:35.875Z,25.8
2023-05-19T09:07:37.490Z,25.8
2023-05-19T09:08:39.161Z,25.8
2023-05-19T09:09:40.867Z,25.8
2023-05-19T09:10:42.579Z,25.8
2023-05-19T09:11:44.193Z,25.8
2023-05-19T09:12:45.805Z,25.9
2023-05-19T09:13:47.446Z,25.9
2023-05-19T09:14:49.207Z,26
2023-05-19T09:15:53.663Z,26
2023-05-19T09:16:55.543Z,26
2023-05-19T09:17:57.892Z,26
2023-05-19T09:19:00.360Z,26.1
2023-05-19T09:20:03.689Z,26.1
2023-05-19T09:21:05.827Z,26.1
2023-05-19T09:22:07.839Z,26.1
2023-05-19T09:23:09.686Z,26
2023-05-19T09:24:11.721Z,26
2023-05-19T09:25:13.488Z,26
2023-05-19T09:26:15.326Z,25.9
2023-05-19T09:27:17.027Z,25.9
2023-05-19T09:28:18.820Z,25.9
2023-05-19T09:29:20.650Z,25.8
2023-05-19T09:30:22.536Z,25.8
2023-05-19T09:31:24.653Z,25.8
2023-05-19T09:32:26.841Z,25.7
2023-05-19T09:33:29.654Z,25.7
2023-05-19T09:34:31.502Z,25.7
2023-05-19T09:35:33.646Z,25.7
2023-05-19T09:36:36.715Z,25.7
2023-05-19T09:37:38.580Z,25.7
2023-05-19T09:38:40.691Z,25.7
2023-05-19T09:39:42.642Z,25.7
2023-05-19T09:40:44.694Z,25.7
2023-05-19T09:41:46.497Z,25.7
2023-05-19T09:42:48.442Z,25.7
2023-05-19T09:43:50.154Z,25.7
2023-05-19T09:44:51.805Z,25.7
2023-05-19T09:45:53.444Z,25.7
2023-05-19T09:46:55.217Z,25.7
2023-05-19T09:47:57.309Z,25.7
2023-05-19T09:48:59.462Z,25.7
2023-05-19T09:50:01.381Z,25.7
2023-05-19T09:51:03.203Z,25.7
2023-05-19T09:52:05.145Z,25.7
2023-05-19T09:53:07.223Z,25.7
2023-05-19T09:54:09.085Z,25.7
2023-05-19T09:55:11.053Z,25.6
2023-05-19T09:56:12.744Z,25.7
2023-05-19T09:57:14.473Z,25.7
2023-05-19T09:58:16.134Z,25.7
2023-05-19T09:59:17.897Z,25.7
2023-05-19T10:00:19.544Z,25.7
2023-05-19T10:01:21.599Z,25.7
2023-05-19T10:02:24.244Z,25.7
2023-05-19T10:03:25.909Z,25.7
2023-05-19T10:04:27.628Z,25.8
2023-05-19T10:05:29.728Z,25.8
2023-05-19T10:06:31.456Z,25.8
2023-05-19T10:07:33.537Z,25.9
2023-05-19T10:08:35.550Z,25.9
2023-05-19T10:09:37.354Z,25.9
2023-05-19T10:10:39.050Z,25.9
2023-05-19T10:11:41.060Z,26
2023-05-19T10:12:42.730Z,26.1
2023-05-19T10:13:44.499Z,26.1
2023-05-19T10:14:46.294Z,26.1
2023-05-19T10:15:57.818Z,26.1
2023-05-19T10:17:03.201Z,26
2023-05-19T10:18:05.962Z,26
2023-05-19T10:19:08.148Z,26
2023-05-19T10:20:10.556Z,25.9
2023-05-19T10:21:12.270Z,25.9
2023-05-19T10:22:13.927Z,25.9
2023-05-19T10:23:15.747Z,25.9
2023-05-19T10:24:17.456Z,25.8
2023-05-19T10:25:19.178Z,25.8
2023-05-19T10:26:20.987Z,25.8
2023-05-19T10:27:22.692Z,25.8
2023-05-19T10:28:24.400Z,25.8
2023-05-19T10:29:26.089Z,25.8
2023-05-19T10:30:27.960Z,25.8
2023-05-19T10:31:29.739Z,25.8
2023-05-19T10:32:31.698Z,25.8
2023-05-19T10:33:34.650Z,25.8
2023-05-19T10:34:36.312Z,25.8
2023-05-19T10:35:38.182Z,25.8
2023-05-19T10:36:41.046Z,25.7
2023-05-19T10:37:42.693Z,25.7
2023-05-19T10:38:44.591Z,25.7
2023-05-19T10:39:46.919Z,25.7
2023-05-19T10:40:48.609Z,25.7
2023-05-19T10:41:50.272Z,25.7
2023-05-19T10:42:51.916Z,25.7
2023-05-19T10:43:53.630Z,25.7
2023-05-19T10:44:55.384Z,25.7
2023-05-19T10:45:57.415Z,25.7
2023-05-19T10:46:59.095Z,25.7
2023-05-19T10:48:01.127Z,25.7
2023-05-19T10:49:03.198Z,25.7
2023-05-19T10:50:04.850Z,25.7
2023-05-19T10:51:06.703Z,25.7
2023-05-19T10:52:08.623Z,25.7
2023-05-19T10:53:10.345Z,25.6
2023-05-19T10:54:13.644Z,25.6
2023-05-19T10:55:16.172Z,25.6
2023-05-19T10:56:18.106Z,25.6
2023-05-19T10:57:20.150Z,25.7
2023-05-19T10:58:21.958Z,25.7
2023-05-19T10:59:23.686Z,25.7
2023-05-19T11:00:25.389Z,25.8
2023-05-19T11:01:27.081Z,25.8
2023-05-19T11:02:29.006Z,25.8
2023-05-19T11:03:31.054Z,25.8
2023-05-19T11:04:32.906Z,25.9
2023-05-19T11:05:34.913Z,26
2023-05-19T11:06:37.455Z,26
2023-05-19T11:07:39.966Z,26
2023-05-19T11:08:41.710Z,25.9
2023-05-19T11:09:43.479Z,25.9
2023-05-19T11:10:45.544Z,25.9
2023-05-19T11:11:47.688Z,25.8
2023-05-19T11:12:49.369Z,25.8
2023-05-19T11:13:51.048Z,25.8
2023-05-19T11:14:52.743Z,25.8
2023-05-19T11:15:54.593Z,25.8
2023-05-19T11:16:56.344Z,25.8
2023-05-19T11:17:58.592Z,25.8
2023-05-19T11:19:00.521Z,25.7
2023-05-19T11:20:02.532Z,25.7
2023-05-19T11:21:04.221Z,25.7
2023-05-19T11:22:06.356Z,25.7
2023-05-19T11:23:08.181Z,25.6
2023-05-19T11:24:10.734Z,25.6
2023-05-19T11:25:12.527Z,25.6
2023-05-19T11:26:14.284Z,25.6
2023-05-19T11:27:16.029Z,25.6
2023-05-19T11:28:17.700Z,25.6
2023-05-19T11:29:20.023Z,25.6
2023-05-19T11:30:22.316Z,25.6
2023-05-19T11:31:24.062Z,25.6
2023-05-19T11:32:26.058Z,25.6
2023-05-19T11:33:28.259Z,25.6
2023-05-19T11:34:30.016Z,25.6
2023-05-19T11:35:33.251Z,25.5
2023-05-19T11:36:38.892Z,25.5
2023-05-19T11:37:40.697Z,25.5
2023-05-19T11:38:42.861Z,25.5
2023-05-19T11:39:44.542Z,25.5
2023-05-19T11:40:46.331Z,25.5
2023-05-19T11:41:47.957Z,25.5
2023-05-19T11:42:49.742Z,25.6
2023-05-19T11:43:51.397Z,25.6
2023-05-19T11:44:53.194Z,25.7
2023-05-19T11:45:55.001Z,25.8
2023-05-19T11:46:57.642Z,25.8
2023-05-19T11:48:01.742Z,25.8
2023-05-19T11:49:05.298Z,25.9
2023-05-19T11:50:07.052Z,25.9
2023-05-19T11:51:08.991Z,26
2023-05-19T11:52:10.671Z,26
2023-05-19T11:53:12.329Z,26
2023-05-19T11:54:14.449Z,26
2023-05-19T11:55:16.188Z,26
2023-05-19T11:56:18.014Z,26
2023-05-19T11:57:19.657Z,26
2023-05-19T11:58:21.373Z,26
2023-05-19T11:59:23.141Z,26
2023-05-19T12:00:25.192Z,26
2023-05-19T12:01:26.828Z,26
2023-05-19T12:02:28.543Z,25.9
2023-05-19T12:03:30.855Z,25.9
2023-05-19T12:04:33.139Z,25.9
2023-05-19T12:05:39.284Z,25.9
2023-05-19T12:06:46.827Z,25.9
2023-05-19T12:07:48.978Z,25.9
2023-05-19T12:08:50.685Z,25.9
2023-05-19T12:09:52.603Z,25.9
2023-05-19T12:10:54.480Z,25.9
2023-05-19T12:11:56.421Z,25.8
2023-05-19T12:12:58.252Z,25.8
2023-05-19T12:14:00.111Z,25.8
2023-05-19T12:15:02.195Z,25.8
2023-05-19T12:16:04.163Z,25.8
2023-05-19T12:17:06.348Z,25.8
2023-05-19T12:18:08.388Z,25.8
2023-05-19T12:19:10.707Z,25.8
2023-05-19T12:20:12.747Z,25.8
2023-05-19T12:21:14.724Z,25.8
2023-05-19T12:22:16.536Z,25.8
2023-05-19T12:23:18.466Z,25.7
2023-05-19T12:24:20.696Z,25.7
2023-05-19T12:25:22.359Z,25.7
2023-05-19T12:26:24.230Z,25.7
2023-05-19T12:27:26.130Z,25.7
2023-05-19T12:28:28.207Z,25.7
2023-05-19T12:29:30.107Z,25.7
2023-05-19T12:30:32.768Z,25.7
2023-05-19T12:31:37.499Z,25.7
2023-05-19T12:32:39.681Z,25.7
2023-05-19T12:33:41.685Z,25.7
2023-05-19T12:34:43.569Z,25.7
2023-05-19T12:35:45.240Z,25.7
2023-05-19T12:36:47.198Z,25.7
2023-05-19T12:37:48.847Z,25.7
2023-05-19T12:38:50.655Z,25.7
2023-05-19T12:39:52.328Z,25.7
2023-05-19T12:40:55.569Z,25.7
2023-05-19T12:41:57.516Z,25.7
2023-05-19T12:42:59.509Z,25.7
2023-05-19T12:44:01.388Z,25.7
2023-05-19T12:45:03.537Z,25.7
2023-05-19T12:46:05.745Z,25.7
2023-05-19T12:47:08.003Z,25.7
2023-05-19T12:48:10.109Z,25.7
2023-05-19T12:49:11.878Z,25.7
2023-05-19T12:50:13.894Z,25.7
2023-05-19T12:51:15.933Z,25.7
2023-05-19T12:52:17.697Z,25.7
2023-05-19T12:53:19.614Z,25.8
2023-05-19T12:54:22.652Z,25.8
2023-05-19T12:55:25.582Z,25.8
2023-05-19T12:56:27.419Z,25.8
2023-05-19T12:57:29.318Z,25.8
2023-05-19T12:58:31.563Z,25.8
2023-05-19T12:59:38.194Z,25.8
2023-05-19T13:00:41.028Z,25.8
2023-05-19T13:01:43.527Z,25.8
2023-05-19T13:02:45.860Z,25.8
2023-05-19T13:03:48.102Z,25.8
2023-05-19T13:04:50.757Z,25.8
2023-05-19T13:05:52.494Z,25.8
2023-05-19T13:06:54.181Z,25.8
2023-05-19T13:07:55.865Z,25.8
2023-05-19T13:08:57.709Z,25.8
2023-05-19T13:09:59.340Z,25.8
2023-05-19T13:11:01.132Z,25.7
2023-05-19T13:12:02.772Z,25.7
2023-05-19T13:13:04.420Z,25.7
2023-05-19T13:14:06.218Z,25.7
2023-05-19T13:15:07.831Z,25.7
2023-05-19T13:16:09.521Z,25.6
2023-05-19T13:17:11.389Z,25.6
2023-05-19T13:18:13.299Z,25.6
2023-05-19T13:19:24.773Z,25.6
2023-05-19T13:20:28.723Z,25.6
2023-05-19T13:21:30.444Z,25.7
2023-05-19T13:22:32.050Z,25.7
2023-05-19T13:23:33.762Z,25.7
2023-05-19T13:24:35.497Z,25.7
2023-05-19T13:25:37.095Z,25.7
2023-05-19T13:26:38.728Z,25.7
2023-05-19T13:27:40.419Z,25.7
2023-05-19T13:28:42.163Z,25.6
2023-05-19T13:29:43.934Z,25.6
2023-05-19T13:30:45.671Z,25.6
2023-05-19T13:31:47.522Z,25.7
2023-05-19T13:32:49.178Z,25.6
2023-05-19T13:33:50.956Z,25.6
2023-05-19T13:34:52.593Z,25.7
2023-05-19T13:35:54.220Z,25.7
2023-05-19T13:36:56.168Z,25.6
2023-05-19T13:37:58.201Z,25.5
2023-05-19T13:38:59.841Z,25.5
2023-05-19T13:40:01.524Z,25.5
2023-05-19T13:41:03.254Z,25.5
2023-05-19T13:42:04.911Z,25.5
2023-05-19T13:43:06.590Z,25.5
2023-05-19T13:44:08.192Z,25.5
2023-05-19T13:45:10.073Z,25.5
2023-05-19T13:46:11.862Z,25.4
2023-05-19T13:47:14.187Z,25.4
2023-05-19T13:48:16.306Z,25.4
2023-05-19T13:49:18.213Z,25.4
2023-05-19T13:50:19.943Z,25.4
2023-05-19T13:51:21.681Z,25.3